Portada
METAR-TAF:

METAR-TAF

Aeroports :

Coles County Memorial Airport

Mattoon-Charleston, Illinois, Estats Units d'Amèrica

latitud: 39-28-41N, longitud: 088-16-45W, altitud: 220 m

Observació

L'informe es va fer fa 23 minuts, a les 16:53 UTC
Vent 10 kt del Sud/Sud-Est amb ràfegues de 15 kt
Temperatura 28°C
Humitat 45%
Pressió 1018 hPa
Visibilitat: 16.1 km
Cel clar

METAR: KMTO 151653Z AUTO 16010G15KT 10SM CLR 28/15 A3007 RMK AO2 SLP178 T02830150

Hora: 12:16 (17:16 UTC)


TAF: manca

Observacions i pronòstics meteorològics de més de 4000 aeroports (METAR i TAF).

Les estacions disponibles són els punts grocs i vermells al mapa.

Posi el ratolí al punt desitjat per veure el nom de l'estació.

Feu clic per veure les observacions i els pronòstics meteorològics.

Per canviar el mapa: feu clic els botons verds amb una creu de color negre per apropar; al botó verd amb un guió per allunyar la imatge; o en les fletxes verdes per a mapes adjacents.


METAR-TAF: